createdAt,value
2023-06-08T00:00:01.251Z,18.13
2023-06-08T00:05:03.493Z,18.01
2023-06-08T00:10:06.341Z,18.01
2023-06-08T00:15:08.759Z,17.88
2023-06-08T00:20:10.851Z,17.78
2023-06-08T00:25:12.394Z,17.80
2023-06-08T00:30:14.329Z,17.69
2023-06-08T00:35:16.091Z,17.53
2023-06-08T00:40:17.658Z,17.43
2023-06-08T00:45:19.293Z,17.35
2023-06-08T00:50:22.436Z,17.31
2023-06-08T00:55:24.150Z,17.39
2023-06-08T01:00:26.370Z,17.30
2023-06-08T01:05:27.915Z,17.21
2023-06-08T01:10:37.976Z,17.13
2023-06-08T01:15:48.902Z,17.17
2023-06-08T01:21:02.815Z,17.12
2023-06-08T01:26:05.766Z,17.06
2023-06-08T01:31:07.390Z,16.71
2023-06-08T01:36:40.333Z,16.61
2023-06-08T01:41:45.443Z,16.67
2023-06-08T01:46:54.203Z,16.69
2023-06-08T01:51:56.078Z,16.69
2023-06-08T01:56:57.745Z,16.81
2023-06-08T02:01:59.615Z,16.74
2023-06-08T02:07:01.249Z,16.68
2023-06-08T02:12:07.454Z,16.71
2023-06-08T02:17:09.228Z,16.65
2023-06-08T02:22:10.848Z,16.58
2023-06-08T02:27:13.799Z,16.39
2023-06-08T02:32:15.364Z,16.22
2023-06-08T02:37:16.950Z,16.12
2023-06-08T02:42:18.867Z,16.08
2023-06-08T02:47:20.716Z,16.07
2023-06-08T02:52:22.501Z,16.11
2023-06-08T02:57:24.291Z,16.00
2023-06-08T03:02:30.797Z,16.00
2023-06-08T03:07:36.165Z,16.04
2023-06-08T03:12:40.013Z,16.07
2023-06-08T03:17:41.732Z,15.97
2023-06-08T03:22:43.543Z,15.94
2023-06-08T03:27:45.608Z,15.96
2023-06-08T03:32:49.277Z,15.92
2023-06-08T03:37:54.323Z,15.99
2023-06-08T03:42:56.216Z,15.79
2023-06-08T03:48:01.174Z,15.77
2023-06-08T03:53:04.797Z,15.86
2023-06-08T03:58:06.721Z,15.83
2023-06-08T04:03:09.404Z,15.83
2023-06-08T04:08:11.075Z,15.95
2023-06-08T04:13:12.877Z,15.63
2023-06-08T04:18:14.409Z,15.66
2023-06-08T04:23:16.526Z,16.08
2023-06-08T04:28:21.594Z,16.41
2023-06-08T04:33:23.372Z,16.65
2023-06-08T04:38:25.476Z,16.81
2023-06-08T04:43:27.099Z,16.86
2023-06-08T04:48:29.250Z,16.96
2023-06-08T04:53:31.984Z,17.07
2023-06-08T04:58:34.604Z,17.06
2023-06-08T05:03:36.264Z,17.17
2023-06-08T05:08:37.913Z,18.07
2023-06-08T05:13:39.482Z,19.29
2023-06-08T05:18:41.047Z,19.75
2023-06-08T05:23:42.645Z,20.35
2023-06-08T05:28:44.230Z,20.92
2023-06-08T05:33:45.831Z,21.62
2023-06-08T05:38:47.399Z,22.35
2023-06-08T05:43:48.957Z,22.72
2023-06-08T05:48:50.652Z,23.12
2023-06-08T05:53:52.272Z,23.73
2023-06-08T05:58:54.459Z,24.00
2023-06-08T06:03:56.261Z,24.42
2023-06-08T06:08:58.057Z,23.80
2023-06-08T06:13:59.656Z,24.12
2023-06-08T06:19:01.209Z,25.48
2023-06-08T06:24:03.077Z,25.90
2023-06-08T06:29:04.655Z,26.86
2023-06-08T06:34:06.241Z,25.90
2023-06-08T06:39:07.796Z,26.46
2023-06-08T06:44:09.622Z,26.71
2023-06-08T06:49:11.182Z,27.27
2023-06-08T06:54:12.712Z,26.58
2023-06-08T06:59:14.306Z,26.07
2023-06-08T07:04:15.951Z,27.57
2023-06-08T07:09:17.853Z,27.91
2023-06-08T07:14:19.416Z,27.63
2023-06-08T07:19:20.939Z,27.61
2023-06-08T07:24:44.450Z,27.90
2023-06-08T07:29:44.396Z,27.72
2023-06-08T07:34:46.766Z,27.12
2023-06-08T07:39:48.375Z,26.92
2023-06-08T07:44:49.914Z,26.25
2023-06-08T07:49:51.454Z,26.63
2023-06-08T07:54:53.070Z,27.16
2023-06-08T07:59:54.689Z,27.37
2023-06-08T08:04:56.239Z,27.17
2023-06-08T08:09:57.829Z,27.30
2023-06-08T08:15:01.616Z,28.54
2023-06-08T08:20:03.372Z,29.20
2023-06-08T08:25:05.441Z,28.87
2023-06-08T08:30:07.884Z,28.11
2023-06-08T08:35:10.011Z,30.45
2023-06-08T08:40:12.144Z,28.43
2023-06-08T08:45:16.964Z,29.79
2023-06-08T08:50:18.917Z,30.91
2023-06-08T08:55:33.777Z,29.97
2023-06-08T09:00:36.059Z,30.25
2023-06-08T09:05:37.769Z,30.14
2023-06-08T09:10:39.655Z,31.00
2023-06-08T09:15:41.270Z,30.32
2023-06-08T09:20:43.056Z,30.00
2023-06-08T09:25:44.752Z,30.77
2023-06-08T09:30:47.606Z,30.85
2023-06-08T09:36:04.878Z,30.91
2023-06-08T09:41:20.507Z,32.22
2023-06-08T09:46:37.184Z,32.69
2023-06-08T09:51:38.963Z,33.37
2023-06-08T09:56:44.170Z,33.45
2023-06-08T10:01:54.484Z,35.06
2023-06-08T10:06:58.008Z,33.11
2023-06-08T10:12:02.820Z,32.01
2023-06-08T10:17:04.712Z,34.38
2023-06-08T10:22:06.421Z,32.46
2023-06-08T10:27:18.633Z,34.49
2023-06-08T10:32:20.290Z,34.61
2023-06-08T10:37:29.001Z,33.12
2023-06-08T10:42:32.955Z,31.97
2023-06-08T10:47:37.729Z,32.08
2023-06-08T10:52:41.398Z,32.46
2023-06-08T10:57:50.126Z,34.77
2023-06-08T11:02:52.863Z,33.34
2023-06-08T11:07:54.556Z,32.26
2023-06-08T11:12:58.211Z,32.84
2023-06-08T11:18:31.943Z,31.52
2023-06-08T11:23:34.739Z,31.59
2023-06-08T11:28:36.337Z,30.11
2023-06-08T11:33:47.211Z,31.70
2023-06-08T11:38:50.006Z,32.16
2023-06-08T11:43:51.661Z,32.16
2023-06-08T11:48:53.349Z,31.46
2023-06-08T11:53:54.913Z,33.76
2023-06-08T11:58:56.448Z,34.53
2023-06-08T12:03:58.150Z,35.28
2023-06-08T12:08:59.770Z,31.77
2023-06-08T12:14:01.335Z,31.47
2023-06-08T12:19:07.430Z,29.91
2023-06-08T12:24:11.404Z,30.47
2023-06-08T12:29:13.071Z,30.12
2023-06-08T12:34:14.601Z,30.75
2023-06-08T12:39:16.173Z,31.11
2023-06-08T12:44:18.542Z,29.45
2023-06-08T12:49:20.238Z,30.01
2023-06-08T12:54:21.932Z,30.90
2023-06-08T12:59:23.496Z,31.89
2023-06-08T13:04:26.735Z,31.77
2023-06-08T13:09:29.794Z,33.60
2023-06-08T13:14:31.353Z,35.07
2023-06-08T13:19:33.058Z,34.93
2023-06-08T13:24:34.682Z,31.56
2023-06-08T13:29:36.897Z,29.02
2023-06-08T13:34:38.458Z,28.78
2023-06-08T13:39:40.167Z,28.20
2023-06-08T13:44:41.785Z,27.71
2023-06-08T13:49:44.532Z,26.76
2023-06-08T13:54:47.268Z,26.99
2023-06-08T13:59:48.859Z,25.91
2023-06-08T14:04:50.536Z,25.76
2023-06-08T14:09:52.143Z,26.57
2023-06-08T14:14:53.739Z,25.91
2023-06-08T14:19:55.414Z,25.66
2023-06-08T14:24:56.955Z,25.96
2023-06-08T14:29:58.526Z,25.63
2023-06-08T14:35:00.154Z,25.86
2023-06-08T14:40:02.160Z,25.31
2023-06-08T14:45:04.055Z,25.83
2023-06-08T14:50:06.639Z,26.45
2023-06-08T14:55:08.707Z,26.76
2023-06-08T15:00:11.333Z,27.71
2023-06-08T15:05:13.199Z,29.46
2023-06-08T15:10:14.942Z,31.79
2023-06-08T15:15:16.499Z,32.98
2023-06-08T15:20:18.005Z,34.16
2023-06-08T15:25:19.663Z,34.63
2023-06-08T15:30:21.287Z,35.15
2023-06-08T15:35:22.815Z,33.95
2023-06-08T15:40:24.469Z,31.72
2023-06-08T15:45:26.001Z,31.54
2023-06-08T15:50:27.597Z,32.31
2023-06-08T15:55:29.189Z,34.67
2023-06-08T16:00:30.903Z,34.80
2023-06-08T16:05:32.482Z,35.06
2023-06-08T16:10:34.028Z,34.87
2023-06-08T16:15:35.690Z,33.43
2023-06-08T16:20:37.275Z,35.14
2023-06-08T16:25:38.857Z,33.77
2023-06-08T16:30:40.404Z,31.70
2023-06-08T16:35:41.979Z,31.42
2023-06-08T16:40:43.575Z,30.85
2023-06-08T16:45:45.291Z,31.11
2023-06-08T16:50:46.891Z,31.72
2023-06-08T16:55:48.429Z,31.00
2023-06-08T17:00:49.970Z,31.41
2023-06-08T17:05:51.510Z,31.41
2023-06-08T17:10:53.061Z,28.64
2023-06-08T17:15:54.642Z,28.24
2023-06-08T17:20:56.258Z,27.72
2023-06-08T17:25:57.834Z,27.47
2023-06-08T17:30:59.555Z,26.25
2023-06-08T17:36:01.153Z,25.75
2023-06-08T17:41:02.784Z,25.78
2023-06-08T17:46:04.397Z,25.41
2023-06-08T17:51:06.053Z,24.84
2023-06-08T17:56:07.646Z,24.56
2023-06-08T18:01:09.334Z,24.44
2023-06-08T18:06:23.931Z,24.46
2023-06-08T18:11:27.217Z,24.55
2023-06-08T18:16:29.060Z,23.52
2023-06-08T18:21:30.636Z,22.04
2023-06-08T18:26:32.205Z,21.65
2023-06-08T18:31:33.812Z,21.47
2023-06-08T18:36:35.421Z,21.53
2023-06-08T18:41:36.966Z,21.23
2023-06-08T18:46:38.576Z,21.23
2023-06-08T18:51:40.182Z,21.32
2023-06-08T18:56:42.120Z,21.37
2023-06-08T19:01:43.740Z,21.58
2023-06-08T19:06:45.334Z,21.85
2023-06-08T19:11:47.802Z,21.98
2023-06-08T19:16:50.047Z,22.07
2023-06-08T19:21:51.689Z,22.02
2023-06-08T19:26:53.281Z,22.11
2023-06-08T19:31:55.152Z,22.01
2023-06-08T19:36:56.970Z,21.89
2023-06-08T19:41:58.569Z,21.60
2023-06-08T19:47:00.336Z,21.43
2023-06-08T19:52:02.100Z,21.32
2023-06-08T19:57:04.594Z,21.29
2023-06-08T20:02:06.244Z,21.20
2023-06-08T20:07:07.918Z,21.06
2023-06-08T20:12:30.193Z,20.97
2023-06-08T20:17:31.824Z,20.90
2023-06-08T20:22:33.628Z,20.68
2023-06-08T20:27:35.198Z,20.37
2023-06-08T20:32:36.919Z,20.05
2023-06-08T20:37:41.345Z,19.92
2023-06-08T20:42:42.938Z,19.76
2023-06-08T20:47:44.561Z,19.62
2023-06-08T20:52:46.205Z,19.45
2023-06-08T20:57:47.877Z,19.45
2023-06-08T21:02:49.686Z,19.35
2023-06-08T21:07:51.426Z,19.25
2023-06-08T21:12:53.004Z,19.16
2023-06-08T21:17:54.611Z,19.05
2023-06-08T21:22:56.167Z,19.00
2023-06-08T21:27:57.796Z,18.94
2023-06-08T21:32:59.532Z,18.85
2023-06-08T21:38:01.241Z,18.77
2023-06-08T21:43:02.774Z,18.72
2023-06-08T21:48:04.517Z,18.42
2023-06-08T21:53:06.207Z,18.36
2023-06-08T21:58:07.794Z,18.53
2023-06-08T22:03:11.640Z,18.56
2023-06-08T22:08:13.331Z,18.61
2023-06-08T22:13:15.120Z,18.63
2023-06-08T22:18:17.032Z,18.77
2023-06-08T22:23:18.613Z,18.74
2023-06-08T22:28:20.165Z,18.61
2023-06-08T22:33:21.709Z,18.59
2023-06-08T22:38:23.528Z,18.38
2023-06-08T22:43:25.082Z,18.19
2023-06-08T22:48:26.622Z,18.10
2023-06-08T22:53:28.168Z,17.80
2023-06-08T22:58:29.992Z,17.60
2023-06-08T23:03:31.684Z,17.49
2023-06-08T23:08:33.276Z,17.47
2023-06-08T23:13:34.833Z,17.53
2023-06-08T23:18:36.497Z,17.63
2023-06-08T23:23:38.083Z,17.72
2023-06-08T23:28:41.119Z,17.81
2023-06-08T23:33:42.709Z,17.64
2023-06-08T23:38:44.296Z,17.63
2023-06-08T23:43:45.831Z,17.88
2023-06-08T23:48:47.407Z,17.81
2023-06-08T23:53:48.987Z,17.83
2023-06-08T23:58:50.611Z,17.76
